Time;durP1;ratioP1;P1;durP2;ratioP2;P2;SDS_P1;SDS_P2;PMS_P1;PMS_P2;Temp;Humidity;BMP_temperature;BMP_pressure;BME280_temperature;BME280_humidity;BME280_pressure;Samples;Min_cycle;Max_cycle;Signal;HPM_P1;HPM_P2
2022/07/25 00:02:23;;;;;;;;;;;;;;;25.72;62.42;100750.19;7402004;19;1621;-57
2022/07/25 00:04:52;;;;;;;;;;;;;;;25.72;61.98;100742.06;7403383;19;1608;-63
2022/07/25 00:07:20;;;;;;;;;;;;;;;25.73;62.49;100756.47;7403234;19;1347;-64
2022/07/25 00:09:49;;;;;;;;;;;;;;;25.70;62.24;100735.16;7403112;19;1621;-57
2022/07/25 00:12:17;;;;;;;;;;;;;;;25.71;62.29;100732.25;7406301;19;1546;-59
2022/07/25 00:14:46;;;;;;;;;;;;;;;25.71;62.09;100748.50;7411381;19;1478;-59
2022/07/25 00:17:17;;;;;;;;;;;;;;;25.76;62.45;100724.41;7409144;19;1853;-64
2022/07/25 00:19:46;;;;;;;;;;;;;;;25.68;62.55;100738.03;7412068;19;1582;-64
2022/07/25 00:22:14;;;;;;;;;;;;;;;25.66;62.36;100737.38;7410379;19;1529;-63
2022/07/25 00:24:42;;;;;;;;;;;;;;;25.68;62.75;100732.63;7411040;19;1640;-64
2022/07/25 00:27:11;;;;;;;;;;;;;;;25.70;62.42;100730.56;7410211;19;1778;-59
2022/07/25 00:29:39;;;;;;;;;;;;;;;25.65;62.54;100711.31;7410394;19;1542;-64
2022/07/25 00:32:08;;;;;;;;;;;;;;;25.69;62.49;100723.47;7410923;19;1345;-64
2022/07/25 00:34:39;;;;;;;;;;;;;;;25.66;62.56;100702.16;7409235;19;1404;-62
2022/07/25 00:37:07;;;;;;;;;;;;;;;25.62;62.67;100706.25;7409461;19;1850;-61
2022/07/25 00:39:35;;;;;;;;;;;;;;;25.68;62.49;100700.13;7411731;19;985;-58
2022/07/25 00:42:04;;;;;;;;;;;;;;;25.76;62.38;100689.22;7409683;19;1746;-57
2022/07/25 00:44:33;;;;;;;;;;;;;;;25.73;62.49;100684.16;7411112;19;1547;-57
2022/07/25 00:47:02;;;;;;;;;;;;;;;25.73;62.31;100684.16;7409040;19;1541;-63
2022/07/25 00:49:30;;;;;;;;;;;;;;;25.69;62.68;100677.44;7408474;19;1431;-62
2022/07/25 00:52:01;;;;;;;;;;;;;;;25.76;62.69;100694.63;7408587;19;1596;-63
2022/07/25 00:54:30;;;;;;;;;;;;;;;25.78;62.58;100689.03;7411049;19;1056;-57
2022/07/25 00:56:58;;;;;;;;;;;;;;;25.75;62.31;100689.41;7407080;19;1838;-58
2022/07/25 00:59:27;;;;;;;;;;;;;;;25.68;62.53;100689.28;7409999;19;1443;-62
2022/07/25 01:01:55;;;;;;;;;;;;;;;25.73;62.69;100686.88;7406278;19;1647;-57
2022/07/25 01:04:23;;;;;;;;;;;;;;;25.70;62.25;100684.53;7408869;19;1522;-63
2022/07/25 01:06:52;;;;;;;;;;;;;;;25.64;62.25;100709.63;7408382;19;1351;-57
2022/07/25 01:09:23;;;;;;;;;;;;;;;25.66;62.15;100718.41;7410260;19;1510;-58
2022/07/25 01:11:52;;;;;;;;;;;;;;;25.71;62.18;100726.00;7408395;19;1333;-57
2022/07/25 01:14:20;;;;;;;;;;;;;;;25.73;61.93;100746.47;7408871;19;1514;-57
2022/07/25 01:16:48;;;;;;;;;;;;;;;25.67;62.20;100735.53;7409542;19;1861;-63
2022/07/25 01:19:17;;;;;;;;;;;;;;;25.68;62.29;100735.31;7409107;19;1589;-64
2022/07/25 01:21:48;;;;;;;;;;;;;;;25.63;62.35;100737.75;7408637;19;1593;-57
2022/07/25 01:24:16;;;;;;;;;;;;;;;25.66;62.40;100747.38;7407358;19;1558;-63
2022/07/25 01:26:44;;;;;;;;;;;;;;;25.72;61.97;100722.25;7409088;19;1534;-63
2022/07/25 01:29:13;;;;;;;;;;;;;;;25.69;62.22;100726.19;7409058;19;1662;-63
2022/07/25 01:31:41;;;;;;;;;;;;;;;25.66;62.15;100723.81;7406895;19;1569;-57
2022/07/25 01:34:09;;;;;;;;;;;;;;;25.66;62.27;100725.69;7408133;19;1361;-57
2022/07/25 01:36:37;;;;;;;;;;;;;;;25.63;62.36;100723.38;7407207;19;1862;-57
2022/07/25 01:39:08;;;;;;;;;;;;;;;25.68;62.12;100721.78;7409385;19;1459;-64
2022/07/25 01:41:37;;;;;;;;;;;;;;;25.65;62.14;100727.56;7407774;19;1636;-57
2022/07/25 01:44:06;;;;;;;;;;;;;;;25.63;62.24;100737.75;7408248;19;1519;-58
2022/07/25 01:46:34;;;;;;;;;;;;;;;25.68;62.41;100738.03;7407096;19;1726;-63
2022/07/25 01:49:03;;;;;;;;;;;;;;;25.66;62.57;100734.66;7407660;19;1609;-63
2022/07/25 01:51:31;;;;;;;;;;;;;;;25.69;62.33;100738.91;7407382;19;1558;-55
2022/07/25 01:53:59;;;;;;;;;;;;;;;25.64;62.37;100725.88;7407823;19;1605;-55
2022/07/25 01:56:30;;;;;;;;;;;;;;;25.67;62.42;100721.97;7405850;19;1861;-60
2022/07/25 01:58:58;;;;;;;;;;;;;;;25.68;62.19;100738.03;7408064;19;1530;-55
2022/07/25 02:01:27;;;;;;;;;;;;;;;25.73;62.23;100729.38;7389092;19;1821;-35
2022/07/25 02:04:01;;;;;;;;;;;;;;;25.68;62.38;100723.66;7403670;19;1923;-35
2022/07/25 02:06:36;;;;;;;;;;;;;;;25.69;62.28;100734.31;7402710;19;1577;-35
2022/07/25 02:09:11;;;;;;;;;;;;;;;25.65;62.41;100730.28;7404658;19;1914;-36
2022/07/25 02:11:45;;;;;;;;;;;;;;;25.62;62.64;100711.66;7403848;19;1837;-35
2022/07/25 02:14:15;;;;;;;;;;;;;;;25.64;62.26;100728.59;7405065;19;1661;-35
2022/07/25 02:16:45;;;;;;;;;;;;;;;25.61;62.41;100718.13;7403549;19;2061;-35
2022/07/25 02:19:19;;;;;;;;;;;;;;;25.60;62.29;100724.56;7404570;19;1854;-35
2022/07/25 02:21:48;;;;;;;;;;;;;;;25.57;62.29;100719.50;7402555;19;1970;-35
2022/07/25 02:24:22;;;;;;;;;;;;;;;25.61;62.34;100726.25;7402913;19;1863;-35
2022/07/25 02:26:57;;;;;;;;;;;;;;;25.63;62.30;100729.63;7403216;19;1797;-35
2022/07/25 02:29:28;;;;;;;;;;;;;;;25.61;62.18;100726.25;7403271;19;1899;-35
2022/07/25 02:32:02;;;;;;;;;;;;;;;25.66;62.20;100723.00;7402076;19;1461;-35
2022/07/25 02:34:32;;;;;;;;;;;;;;;25.63;62.12;100726.91;7403077;19;2044;-35
2022/07/25 02:37:02;;;;;;;;;;;;;;;25.69;61.92;100722.66;7402736;19;1850;-35
2022/07/25 02:39:32;;;;;;;;;;;;;;;25.60;62.23;100713.72;7403792;19;1591;-35
2022/07/25 02:42:08;;;;;;;;;;;;;;;25.58;62.54;100713.06;7402602;19;2058;-35
2022/07/25 02:44:46;;;;;;;;;;;;;;;25.62;62.77;100725.22;7402499;19;1626;-36
2022/07/25 02:47:17;;;;;;;;;;;;;;;25.58;62.92;100723.88;7402445;19;1892;-35
2022/07/25 02:49:59;;;;;;;;;;;;;;;25.56;62.75;100723.22;7402531;19;1918;-35
2022/07/25 02:52:29;;;;;;;;;;;;;;;25.63;62.39;100729.63;7401299;19;1892;-35
2022/07/25 02:54:57;;;;;;;;;;;;;;;25.65;62.83;100738.41;7402038;19;1849;-35
2022/07/25 02:57:28;;;;;;;;;;;;;;;25.60;62.80;100716.44;7397754;19;2273;-38
2022/07/25 02:59:59;;;;;;;;;;;;;;;25.58;63.58;100726.59;7399223;19;1541;-35
2022/07/25 03:02:28;;;;;;;;;;;;;;;25.57;63.66;100725.75;7399751;19;1717;-35
2022/07/25 03:05:02;;;;;;;;;;;;;;;25.55;63.94;100716.97;7399210;19;1671;-35
2022/07/25 03:07:31;;;;;;;;;;;;;;;25.53;63.93;100729.03;7397952;19;1939;-35
2022/07/25 03:09:59;;;;;;;;;;;;;;;25.53;64.15;100739.84;7398369;19;1930;-35
2022/07/25 03:12:31;;;;;;;;;;;;;;;25.51;64.03;100748.16;7400374;19;1872;-36
2022/07/25 03:15:00;;;;;;;;;;;;;;;25.39;64.19;100711.69;7401147;19;2091;-35
2022/07/25 03:17:29;;;;;;;;;;;;;;;25.28;64.57;100712.91;7401119;19;1865;-35
2022/07/25 03:19:58;;;;;;;;;;;;;;;25.26;64.78;100722.25;7399892;19;1701;-35
2022/07/25 03:22:27;;;;;;;;;;;;;;;25.19;65.30;100732.91;7401613;19;1729;-35
2022/07/25 03:24:55;;;;;;;;;;;;;;;25.18;65.20;100731.22;7400980;19;1819;-35
2022/07/25 03:27:23;;;;;;;;;;;;;;;25.28;64.54;100729.16;7400355;19;1760;-35
2022/07/25 03:29:54;;;;;;;;;;;;;;;25.15;65.23;100731.59;7400212;19;1831;-35
2022/07/25 03:32:22;;;;;;;;;;;;;;;25.10;65.61;100740.22;7399854;19;1815;-35
2022/07/25 03:34:51;;;;;;;;;;;;;;;25.13;65.57;100745.28;7400936;19;1915;-35
2022/07/25 03:37:19;;;;;;;;;;;;;;;25.14;65.02;100735.31;7399932;19;1846;-35
2022/07/25 03:39:48;;;;;;;;;;;;;;;25.24;65.01;100757.59;7402470;19;1035;-35
2022/07/25 03:42:16;;;;;;;;;;;;;;;25.27;65.41;100759.09;7398462;19;1831;-35
2022/07/25 03:44:44;;;;;;;;;;;;;;;25.26;65.04;100760.97;7400150;19;1909;-35
2022/07/25 03:47:15;;;;;;;;;;;;;;;25.23;64.99;100772.16;7402664;19;1937;-35
2022/07/25 03:49:43;;;;;;;;;;;;;;;25.28;64.95;100756.22;7407216;19;1538;-35
2022/07/25 03:52:11;;;;;;;;;;;;;;;25.36;64.83;100756.19;7408767;19;1821;-35
2022/07/25 03:54:40;;;;;;;;;;;;;;;25.31;65.01;100752.34;7406891;19;1944;-35
2022/07/25 03:57:09;;;;;;;;;;;;;;;25.32;64.85;100746.72;7406763;19;1935;-35
2022/07/25 03:59:37;;;;;;;;;;;;;;;25.34;64.67;100752.81;7407923;19;1644;-35
2022/07/25 04:02:06;;;;;;;;;;;;;;;25.36;64.77;100745.34;7404381;19;1897;-35
2022/07/25 04:04:37;;;;;;;;;;;;;;;25.33;64.72;100756.53;7407751;19;1808;-35
2022/07/25 04:07:05;;;;;;;;;;;;;;;25.36;64.98;100761.59;7406347;19;1815;-36
2022/07/25 04:09:33;;;;;;;;;;;;;;;25.34;64.78;100747.38;7408662;19;1937;-35
2022/07/25 04:12:01;;;;;;;;;;;;;;;25.33;64.94;100750.28;7407497;19;1698;-35
2022/07/25 04:14:30;;;;;;;;;;;;;;;25.30;65.02;100756.88;7406856;19;1825;-36
2022/07/25 04:16:58;;;;;;;;;;;;;;;25.25;65.39;100745.78;7408142;19;1794;-35
2022/07/25 04:19:26;;;;;;;;;;;;;;;25.28;65.06;100758.09;7404403;19;2059;-36
2022/07/25 04:21:57;;;;;;;;;;;;;;;25.34;64.97;100758.22;7406862;19;2018;-35
2022/07/25 04:24:25;;;;;;;;;;;;;;;25.16;65.40;100768.44;7408253;19;1911;-35
2022/07/25 04:26:54;;;;;;;;;;;;;;;25.04;66.51;100756.31;7407363;19;1825;-35
2022/07/25 04:29:22;;;;;;;;;;;;;;;25.04;66.59;100767.16;7406412;19;1655;-35
2022/07/25 04:31:50;;;;;;;;;;;;;;;25.17;66.35;100775.56;7406699;19;1940;-35
2022/07/25 04:34:19;;;;;;;;;;;;;;;25.18;66.00;100763.69;7405998;19;1699;-35
2022/07/25 04:36:51;;;;;;;;;;;;;;;25.25;65.73;100764.72;7406240;19;1821;-35
2022/07/25 04:39:28;;;;;;;;;;;;;;;25.30;65.69;100773.13;7405068;19;1944;-35
2022/07/25 04:42:00;;;;;;;;;;;;;;;25.30;65.50;100772.28;7405735;19;1949;-35
2022/07/25 04:44:28;;;;;;;;;;;;;;;25.24;66.30;100770.28;7407541;19;1712;-35
2022/07/25 04:46:58;;;;;;;;;;;;;;;25.22;66.17;100765.06;7405600;19;1741;-35
2022/07/25 04:49:31;;;;;;;;;;;;;;;25.30;65.82;100772.28;7405422;19;1840;-35
2022/07/25 04:52:01;;;;;;;;;;;;;;;25.39;65.39;100782.06;7406440;19;1532;-35
2022/07/25 04:54:32;;;;;;;;;;;;;;;25.45;65.12;100775.94;7406407;19;1622;-35
2022/07/25 04:57:03;;;;;;;;;;;;;;;25.46;64.89;100763.25;7404604;19;1817;-35
2022/07/25 04:59:35;;;;;;;;;;;;;;;25.51;64.52;100761.69;7404000;19;1852;-35
2022/07/25 05:02:25;;;;;;;;;;;;;;;25.54;64.64;100769.44;7403415;19;1806;-35
2022/07/25 05:04:55;;;;;;;;;;;;;;;25.55;64.41;100764.88;7406696;19;1828;-35
2022/07/25 05:07:26;;;;;;;;;;;;;;;25.52;64.64;100767.94;7405843;19;1815;-35
2022/07/25 05:09:59;;;;;;;;;;;;;;;25.59;64.61;100785.16;7405689;19;1762;-35
2022/07/25 05:12:29;;;;;;;;;;;;;;;25.60;64.82;100778.72;7405847;19;1620;-35
2022/07/25 05:15:00;;;;;;;;;;;;;;;25.58;64.88;100784.31;7406310;19;1840;-34
2022/07/25 05:17:30;;;;;;;;;;;;;;;25.66;64.38;100786.13;7406378;19;1847;-35
2022/07/25 05:20:05;;;;;;;;;;;;;;;25.66;64.41;100783.41;7404629;19;1789;-35
2022/07/25 05:22:34;;;;;;;;;;;;;;;25.69;64.17;100793.91;7405253;19;1917;-35
2022/07/25 05:25:07;;;;;;;;;;;;;;;25.64;64.29;100784.63;7401521;19;1801;-36
2022/07/25 05:27:43;;;;;;;;;;;;;;;25.70;64.09;100800.97;7403892;19;1932;-35
2022/07/25 05:30:18;;;;;;;;;;;;;;;25.58;64.07;100805.13;7405293;19;1630;-35
2022/07/25 05:32:46;;;;;;;;;;;;;;;25.55;64.14;100797.38;7403941;19;1614;-35
2022/07/25 05:35:14;;;;;;;;;;;;;;;25.50;63.95;100811.44;7405864;19;1828;-35
2022/07/25 05:37:43;;;;;;;;;;;;;;;25.54;63.79;100811.91;7404081;19;1912;-35
2022/07/25 05:40:25;;;;;;;;;;;;;;;25.46;63.83;100812.81;7403498;19;1713;-35
2022/07/25 05:42:54;;;;;;;;;;;;;;;25.50;64.01;100803.31;7403715;19;1942;-35
2022/07/25 05:45:43;;;;;;;;;;;;;;;25.44;63.99;100797.78;7402095;19;1765;-36
2022/07/25 05:48:12;;;;;;;;;;;;;;;25.57;63.71;100793.47;7405909;19;1083;-35
2022/07/25 05:50:44;;;;;;;;;;;;;;;25.55;63.10;100789.25;7404410;19;1714;-35
2022/07/25 05:53:19;;;;;;;;;;;;;;;25.51;62.82;100790.63;7402444;19;1616;-35
2022/07/25 05:55:51;;;;;;;;;;;;;;;25.49;63.07;100798.94;7400740;19;1770;-35
2022/07/25 06:01:05;;;;;;;;;;;;;;;25.45;62.66;100802.19;7402000;19;1585;-35
2022/07/25 06:03:33;;;;;;;;;;;;;;;25.52;62.53;100786.88;7400649;19;1871;-35
2022/07/25 06:06:01;;;;;;;;;;;;;;;25.52;62.21;100787.72;7404863;19;1813;-35
2022/07/25 06:08:30;;;;;;;;;;;;;;;25.52;62.32;100798.56;7404155;19;1815;-35
2022/07/25 06:11:02;;;;;;;;;;;;;;;25.54;62.37;100799.22;7401278;19;2044;-35
2022/07/25 06:13:31;;;;;;;;;;;;;;;25.59;62.47;100809.53;7402911;19;1916;-35
2022/07/25 06:15:59;;;;;;;;;;;;;;;25.49;62.04;100803.50;7403045;19;1928;-35
2022/07/25 06:18:28;;;;;;;;;;;;;;;25.48;62.22;100796.38;7402638;19;1937;-35
2022/07/25 06:20:56;;;;;;;;;;;;;;;25.58;61.87;100803.25;7404326;19;1943;-35
2022/07/25 06:23:24;;;;;;;;;;;;;;;25.58;62.07;100811.38;7404334;19;1948;-35
2022/07/25 06:25:53;;;;;;;;;;;;;;;25.60;61.89;100794.97;7402891;19;1957;-36
2022/07/25 06:28:23;;;;;;;;;;;;;;;25.59;61.72;100807.66;7402931;19;1825;-35
2022/07/25 06:30:52;;;;;;;;;;;;;;;25.62;61.65;100801.03;7401470;19;1905;-35
2022/07/25 06:33:20;;;;;;;;;;;;;;;25.70;61.50;100822.66;7402679;19;1902;-36
2022/07/25 06:35:48;;;;;;;;;;;;;;;25.54;61.71;100799.22;7404135;19;1099;-35
2022/07/25 06:38:16;;;;;;;;;;;;;;;25.55;61.34;100800.09;7401810;19;1859;-35
2022/07/25 06:40:45;;;;;;;;;;;;;;;25.62;61.54;100820.00;7401355;19;1781;-35
2022/07/25 06:43:14;;;;;;;;;;;;;;;25.53;61.81;100804.84;7402529;19;1815;-36
2022/07/25 06:45:46;;;;;;;;;;;;;;;25.55;61.67;100800.09;7403454;19;1838;-35
2022/07/25 06:48:14;;;;;;;;;;;;;;;25.60;61.12;100816.63;7401851;19;1469;-35
2022/07/25 06:50:42;;;;;;;;;;;;;;;25.57;61.45;100811.59;7403052;19;1849;-35
2022/07/25 06:53:11;;;;;;;;;;;;;;;25.67;61.12;100805.94;7402152;19;1906;-35
2022/07/25 06:55:39;;;;;;;;;;;;;;;25.67;61.23;100812.19;7402427;19;1923;-35
2022/07/25 06:58:07;;;;;;;;;;;;;;;25.68;61.26;100819.28;7399955;19;1951;-35
2022/07/25 07:00:35;;;;;;;;;;;;;;;25.63;61.34;100821.69;7403189;19;1913;-35
2022/07/25 07:03:06;;;;;;;;;;;;;;;25.50;61.15;100821.44;7400301;19;1728;-35
2022/07/25 07:05:36;;;;;;;;;;;;;;;25.45;61.19;100818.41;7402625;19;1927;-35
2022/07/25 07:08:05;;;;;;;;;;;;;;;25.45;61.05;100818.41;7401151;19;1730;-35
2022/07/25 07:10:33;;;;;;;;;;;;;;;25.47;61.00;100806.38;7401447;19;1920;-35
2022/07/25 07:13:06;;;;;;;;;;;;;;;25.44;61.13;100820.25;7401895;19;1839;-35
2022/07/25 07:15:34;;;;;;;;;;;;;;;25.43;61.24;100815.03;7402179;19;1826;-35
2022/07/25 07:18:02;;;;;;;;;;;;;;;25.35;60.96;100802.41;7401016;19;1836;-35
2022/07/25 07:20:36;;;;;;;;;;;;;;;25.38;60.98;100829.94;7396406;19;2175;-36
2022/07/25 07:23:05;;;;;;;;;;;;;;;25.42;60.95;100816.88;7398576;19;1634;-35
2022/07/25 07:25:33;;;;;;;;;;;;;;;25.43;60.98;100831.25;7400828;19;1913;-35
2022/07/25 07:28:01;;;;;;;;;;;;;;;25.38;61.10;100819.09;7401349;19;1900;-36
2022/07/25 07:30:29;;;;;;;;;;;;;;;25.36;60.90;100815.72;7401298;19;1828;-36
2022/07/25 07:32:58;;;;;;;;;;;;;;;25.38;61.24;100821.81;7400171;19;1803;-35
2022/07/25 07:35:26;;;;;;;;;;;;;;;25.50;60.82;100837.66;7400764;19;1784;-35
2022/07/25 07:37:57;;;;;;;;;;;;;;;25.49;60.59;100836.00;7401048;19;1918;-35
2022/07/25 07:40:25;;;;;;;;;;;;;;;25.58;60.49;100845.75;7397511;19;1919;-35
2022/07/25 07:42:55;;;;;;;;;;;;;;;25.48;60.97;100832.41;7400929;19;2322;-35
2022/07/25 07:45:24;;;;;;;;;;;;;;;25.47;60.72;100846.16;7400440;19;1866;-35
2022/07/25 07:47:54;;;;;;;;;;;;;;;25.44;60.83;100838.38;7400706;19;1733;-35
2022/07/25 07:50:23;;;;;;;;;;;;;;;25.53;60.37;100827.34;7400945;19;1904;-35
2022/07/25 07:52:52;;;;;;;;;;;;;;;25.52;60.72;100831.06;7400397;19;1895;-36
2022/07/25 07:58:06;;;;;;;;;;;;;;;25.54;60.71;100834.41;7401402;19;1929;-35
2022/07/25 08:00:35;;;;;;;;;;;;;;;25.51;60.57;100823.13;7399468;19;1920;-35
2022/07/25 08:03:05;;;;;;;;;;;;;;;25.56;60.32;100820.72;7398372;19;1831;-35
2022/07/25 08:05:34;;;;;;;;;;;;;;;25.52;60.46;100822.09;7399341;19;1719;-36
2022/07/25 08:08:03;;;;;;;;;;;;;;;25.61;60.22;100826.44;7400588;19;1627;-35
2022/07/25 08:10:36;;;;;;;;;;;;;;;25.73;60.45;100816.91;7399919;19;1851;-35
2022/07/25 08:13:05;;;;;;;;;;;;;;;25.69;60.17;100823.69;7399847;19;1912;-36
2022/07/25 08:15:33;;;;;;;;;;;;;;;25.73;60.28;100822.31;7398336;19;1666;-35
2022/07/25 08:18:03;;;;;;;;;;;;;;;25.77;59.98;100820.09;7398744;19;2009;-35
2022/07/25 08:20:31;;;;;;;;;;;;;;;25.80;60.34;100815.16;7397826;19;1959;-35
2022/07/25 08:23:00;;;;;;;;;;;;;;;25.76;60.31;100813.81;7399863;19;1832;-35
2022/07/25 08:25:28;;;;;;;;;;;;;;;25.77;60.43;100815.50;7400253;19;1848;-35
2022/07/25 08:27:59;;;;;;;;;;;;;;;25.80;60.02;100807.03;7400653;19;1889;-35
2022/07/25 08:30:27;;;;;;;;;;;;;;;25.76;60.11;100819.22;7400036;19;1864;-35
2022/07/25 08:32:58;;;;;;;;;;;;;;;25.80;59.99;100815.16;7400466;19;1807;-35
2022/07/25 08:35:27;;;;;;;;;;;;;;;25.83;60.01;100803.13;7407223;19;1638;-35
2022/07/25 08:37:56;;;;;;;;;;;;;;;25.86;60.12;100808.16;7407079;19;1697;-36
2022/07/25 08:40:27;;;;;;;;;;;;;;;25.89;59.75;100815.94;7405521;19;1981;-35
2022/07/25 08:42:57;;;;;;;;;;;;;;;25.79;59.88;100813.47;7407446;19;1797;-35
2022/07/25 08:45:34;;;;;;;;;;;;;;;25.88;59.81;100814.25;7406863;19;2046;-35
2022/07/25 08:48:02;;;;;;;;;;;;;;;25.91;59.53;100818.50;7406295;19;1756;-35
2022/07/25 08:50:31;;;;;;;;;;;;;;;25.84;59.65;100817.50;7406646;19;1940;-35
2022/07/25 08:53:00;;;;;;;;;;;;;;;25.90;59.15;100814.94;7406212;19;2315;-35
2022/07/25 08:55:29;;;;;;;;;;;;;;;25.91;58.62;100822.06;7405943;19;1596;-35
2022/07/25 08:58:06;;;;;;;;;;;;;;;25.95;58.91;100815.25;7407122;19;1661;-35
2022/07/25 09:00:37;;;;;;;;;;;;;;;25.93;58.82;100797.50;7404917;19;1925;-35
2022/07/25 09:03:07;;;;;;;;;;;;;;;25.97;58.72;100807.78;7404164;19;1925;-35
2022/07/25 09:05:37;;;;;;;;;;;;;;;25.96;58.40;100786.28;7405796;19;1721;-35
2022/07/25 09:08:09;;;;;;;;;;;;;;;25.95;58.18;100787.31;7407407;19;1659;-35
2022/07/25 09:10:41;;;;;;;;;;;;;;;25.97;58.29;100793.41;7406266;19;1603;-35
2022/07/25 09:13:12;;;;;;;;;;;;;;;25.96;58.14;100795.28;7406202;19;1657;-35
2022/07/25 09:15:52;;;;;;;;;;;;;;;26.01;58.11;100792.00;7406152;19;1666;-36
2022/07/25 09:18:24;;;;;;;;;;;;;;;26.01;58.30;100783.03;7405079;19;1764;-35
2022/07/25 09:20:54;;;;;;;;;;;;;;;25.99;58.45;100784.06;7404058;19;1851;-35
2022/07/25 09:23:30;;;;;;;;;;;;;;;26.01;58.21;100797.44;7403550;19;1715;-35
2022/07/25 09:26:03;;;;;;;;;;;;;;;26.00;58.38;100779.47;7403367;19;1616;-35
2022/07/25 09:28:32;;;;;;;;;;;;;;;26.02;58.24;100782.84;7402718;19;2398;-35
2022/07/25 09:31:03;;;;;;;;;;;;;;;25.99;58.13;100775.09;7403206;19;1850;-35
2022/07/25 09:33:33;;;;;;;;;;;;;;;26.00;58.16;100774.06;7405362;19;1527;-35
2022/07/25 09:36:14;;;;;;;;;;;;;;;26.03;58.10;100762.88;7404379;19;1937;-35
2022/07/25 09:38:53;;;;;;;;;;;;;;;26.10;58.21;100780.09;7405636;19;1689;-35
2022/07/25 09:41:21;;;;;;;;;;;;;;;26.00;58.15;100793.03;7404809;19;1823;-35
2022/07/25 09:43:49;;;;;;;;;;;;;;;25.94;58.16;100766.66;7405431;19;1914;-35
2022/07/25 09:46:30;;;;;;;;;;;;;;;25.96;58.26;100768.19;7399091;19;1838;-35
2022/07/25 09:48:59;;;;;;;;;;;;;;;26.02;58.31;100776.59;7404436;19;1816;-35
2022/07/25 09:51:29;;;;;;;;;;;;;;;26.01;58.35;100773.03;7407021;19;1926;-35
2022/07/25 09:53:57;;;;;;;;;;;;;;;26.03;58.20;100773.69;7405667;19;1850;-35
2022/07/25 09:56:25;;;;;;;;;;;;;;;25.97;58.52;100766.31;7403562;19;1928;-35
2022/07/25 09:58:53;;;;;;;;;;;;;;;26.03;58.23;100765.56;7404049;19;1894;-35
2022/07/25 10:01:36;;;;;;;;;;;;;;;26.02;58.33;100757.63;7400463;19;1853;-35
2022/07/25 10:04:11;;;;;;;;;;;;;;;26.00;58.44;100765.91;7404199;19;1816;-35
2022/07/25 10:06:41;;;;;;;;;;;;;;;26.05;58.31;100760.81;7403798;19;1713;-35
2022/07/25 10:09:12;;;;;;;;;;;;;;;26.03;58.01;100757.44;7404397;19;1694;-36
2022/07/25 10:11:41;;;;;;;;;;;;;;;25.99;58.25;100742.56;7404188;19;1917;-35
2022/07/25 10:14:11;;;;;;;;;;;;;;;25.99;58.45;100753.41;7402263;19;1584;-35
2022/07/25 10:16:49;;;;;;;;;;;;;;;25.99;58.03;100762.38;7403066;19;2015;-35
2022/07/25 10:19:18;;;;;;;;;;;;;;;25.98;58.26;100754.41;7403586;19;1928;-35
2022/07/25 10:21:56;;;;;;;;;;;;;;;26.05;58.32;100755.41;7403355;19;1862;-35
2022/07/25 10:24:34;;;;;;;;;;;;;;;26.02;58.08;100752.19;7404475;19;1823;-35
2022/07/25 10:27:10;;;;;;;;;;;;;;;25.92;58.18;100742.44;7403068;19;1637;-35
2022/07/25 10:29:39;;;;;;;;;;;;;;;26.04;57.79;100740.13;7402683;19;1818;-35
2022/07/25 10:32:10;;;;;;;;;;;;;;;26.07;58.17;100745.22;7403725;19;1638;-35
2022/07/25 10:34:39;;;;;;;;;;;;;;;26.04;58.20;100747.44;7403456;19;1975;-35
2022/07/25 10:37:11;;;;;;;;;;;;;;;26.10;57.89;100741.28;7401381;19;1827;-35
2022/07/25 10:39:40;;;;;;;;;;;;;;;25.98;57.85;100738.16;7402662;19;1954;-36
2022/07/25 10:42:08;;;;;;;;;;;;;;;26.00;58.38;100730.69;7400096;19;1720;-35
2022/07/25 10:44:43;;;;;;;;;;;;;;;26.10;58.08;100731.31;7401576;19;1835;-35
2022/07/25 10:47:15;;;;;;;;;;;;;;;25.95;58.29;100727.72;7402965;19;1692;-36
2022/07/25 10:49:46;;;;;;;;;;;;;;;25.98;58.25;100728.19;7402171;19;1712;-35
2022/07/25 10:52:16;;;;;;;;;;;;;;;26.08;57.80;100725.19;7401197;19;1806;-35
2022/07/25 10:54:54;;;;;;;;;;;;;;;26.07;57.79;100715.41;7401992;19;1776;-35
2022/07/25 10:57:22;;;;;;;;;;;;;;;26.07;58.27;100728.94;7400474;19;1960;-35
2022/07/25 10:59:50;;;;;;;;;;;;;;;26.06;57.92;100712.88;7402161;19;1867;-35
2022/07/25 11:02:21;;;;;;;;;;;;;;;26.02;58.02;100715.09;7401025;19;1821;-35
2022/07/25 11:05:00;;;;;;;;;;;;;;;26.02;58.25;100711.56;7402659;19;1917;-35
2022/07/25 11:07:34;;;;;;;;;;;;;;;26.09;58.03;100702.50;7401540;19;1907;-35
2022/07/25 11:10:03;;;;;;;;;;;;;;;26.06;57.87;100705.56;7402414;19;1896;-35
2022/07/25 11:12:32;;;;;;;;;;;;;;;26.05;58.03;100689.53;7401590;19;1927;-35
2022/07/25 11:15:02;;;;;;;;;;;;;;;26.06;57.71;100689.31;7401329;19;1734;-35
2022/07/25 11:17:33;;;;;;;;;;;;;;;26.03;57.89;100695.13;7401981;19;1637;-35
2022/07/25 11:20:02;;;;;;;;;;;;;;;26.03;57.96;100680.72;7405257;19;1862;-35
2022/07/25 11:22:31;;;;;;;;;;;;;;;26.01;57.77;100683.63;7402218;19;1946;-35
2022/07/25 11:24:59;;;;;;;;;;;;;;;26.10;58.07;100696.06;7400833;19;1985;-36
2022/07/25 11:27:29;;;;;;;;;;;;;;;26.12;57.62;100690.44;7401690;19;1905;-36
2022/07/25 11:30:15;;;;;;;;;;;;;;;26.16;57.72;100681.78;7401060;19;1919;-36
2022/07/25 11:32:56;;;;;;;;;;;;;;;26.05;57.34;100668.69;7401824;19;1822;-35
2022/07/25 11:35:30;;;;;;;;;;;;;;;26.12;57.35;100668.78;7401374;19;1591;-35
2022/07/25 11:38:19;;;;;;;;;;;;;;;26.14;57.01;100667.56;7399849;19;1998;-35
2022/07/25 11:40:48;;;;;;;;;;;;;;;26.08;56.85;100662.88;7402595;19;1853;-35
2022/07/25 11:43:21;;;;;;;;;;;;;;;26.09;57.32;100672.69;7402067;19;1564;-36
2022/07/25 11:45:57;;;;;;;;;;;;;;;26.08;57.29;100651.19;7400717;19;1834;-36
2022/07/25 11:48:34;;;;;;;;;;;;;;;26.03;56.82;100654.47;7400658;19;1473;-36
2022/07/25 11:51:13;;;;;;;;;;;;;;;26.07;57.01;100663.91;7401566;19;1863;-35
2022/07/25 11:53:42;;;;;;;;;;;;;;;26.06;56.96;100648.66;7402380;19;1925;-35
2022/07/25 11:56:14;;;;;;;;;;;;;;;26.06;57.00;100662.22;7399759;19;1841;-35
2022/07/25 11:58:42;;;;;;;;;;;;;;;26.10;57.27;100660.84;7401092;19;1936;-35
2022/07/25 12:01:14;;;;;;;;;;;;;;;26.09;57.41;100651.00;7398383;19;1917;-35
2022/07/25 12:03:45;;;;;;;;;;;;;;;26.14;57.17;100642.31;7399419;19;1601;-35
2022/07/25 12:06:14;;;;;;;;;;;;;;;26.10;57.17;100632.88;7400655;19;1644;-35
2022/07/25 12:08:43;;;;;;;;;;;;;;;26.14;56.57;100651.31;7403927;19;1828;-36
2022/07/25 12:11:18;;;;;;;;;;;;;;;26.04;57.30;100636.34;7407749;19;1921;-35
2022/07/25 12:13:47;;;;;;;;;;;;;;;26.14;56.64;100635.06;7407813;19;1686;-35
2022/07/25 12:16:15;;;;;;;;;;;;;;;26.08;56.30;100630.34;7406047;19;1567;-36
2022/07/25 12:18:46;;;;;;;;;;;;;;;26.08;56.61;100626.81;7408118;19;1708;-35
2022/07/25 12:21:14;;;;;;;;;;;;;;;26.08;56.57;100619.50;7405949;19;1863;-35
2022/07/25 12:23:43;;;;;;;;;;;;;;;26.07;56.54;100620.56;7408563;19;1813;-36
2022/07/25 12:26:13;;;;;;;;;;;;;;;26.11;56.29;100621.84;7407625;19;1729;-35
2022/07/25 12:28:42;;;;;;;;;;;;;;;26.12;56.32;100615.44;7407057;19;2047;-35
2022/07/25 12:31:10;;;;;;;;;;;;;;;26.14;56.50;100617.94;7406854;19;1923;-35
2022/07/25 12:33:38;;;;;;;;;;;;;;;26.11;56.67;100627.28;7407064;19;1921;-36
2022/07/25 12:36:13;;;;;;;;;;;;;;;26.13;56.67;100617.09;7407491;19;1385;-36
2022/07/25 12:38:41;;;;;;;;;;;;;;;26.10;56.13;100611.19;7407916;19;1830;-35
2022/07/25 12:41:09;;;;;;;;;;;;;;;26.05;56.25;100606.34;7404399;19;1951;-35
2022/07/25 12:43:37;;;;;;;;;;;;;;;26.11;56.31;100613.72;7405211;19;1576;-36
2022/07/25 12:46:07;;;;;;;;;;;;;;;26.05;55.99;100587.38;7404707;19;1553;-35
2022/07/25 12:48:35;;;;;;;;;;;;;;;26.07;56.51;100598.03;7406819;19;1710;-35
2022/07/25 12:51:04;;;;;;;;;;;;;;;26.16;56.19;100595.06;7408267;19;1008;-35
2022/07/25 12:53:35;;;;;;;;;;;;;;;26.19;56.21;100589.25;7407267;19;1582;-35
2022/07/25 12:56:03;;;;;;;;;;;;;;;26.15;55.86;100590.66;7405953;19;2084;-35
2022/07/25 12:58:31;;;;;;;;;;;;;;;26.13;56.15;100590.00;7405312;19;1567;-36
2022/07/25 13:00:59;;;;;;;;;;;;;;;26.16;56.37;100589.63;7404401;19;1941;-35
2022/07/25 13:03:28;;;;;;;;;;;;;;;26.18;56.17;100590.28;7401195;19;1830;-35
2022/07/25 13:05:56;;;;;;;;;;;;;;;26.17;55.67;100599.44;7404181;19;1092;-35
2022/07/25 13:08:24;;;;;;;;;;;;;;;26.12;55.92;100585.63;7404957;19;1856;-35
2022/07/25 13:10:55;;;;;;;;;;;;;;;26.11;56.08;100581.22;7405359;19;1919;-35